sensor_id;sensor_type;location;lat;lon;timestamp;pressure;altitude;pressure_sealevel;temperature;humidity
23281;BME280;11809;56.390;-3.266;2023-02-11T00:01:10;102266.41;;;15.17;55.51
23281;BME280;11809;56.390;-3.266;2023-02-11T00:03:39;102278.72;;;15.18;55.65
23281;BME280;11809;56.390;-3.266;2023-02-11T00:06:07;102279.69;;;15.16;55.70
23281;BME280;11809;56.390;-3.266;2023-02-11T00:08:37;102282.44;;;15.13;55.60
23281;BME280;11809;56.390;-3.266;2023-02-11T00:11:05;102282.50;;;15.11;55.61
23281;BME280;11809;56.390;-3.266;2023-02-11T00:13:32;102279.03;;;15.09;55.65
23281;BME280;11809;56.390;-3.266;2023-02-11T00:15:59;102279.97;;;15.08;55.79
23281;BME280;11809;56.390;-3.266;2023-02-11T00:18:26;102281.75;;;15.06;55.84
23281;BME280;11809;56.390;-3.266;2023-02-11T00:20:53;102278.28;;;15.06;55.77
23281;BME280;11809;56.390;-3.266;2023-02-11T00:23:23;102277.44;;;15.04;55.86
23281;BME280;11809;56.390;-3.266;2023-02-11T00:25:50;102279.28;;;15.02;56.10
23281;BME280;11809;56.390;-3.266;2023-02-11T00:28:18;102282.00;;;15.00;56.04
23281;BME280;11809;56.390;-3.266;2023-02-11T00:30:53;102291.75;;;14.98;56.30
23281;BME280;11809;56.390;-3.266;2023-02-11T00:33:20;102296.22;;;14.96;56.18
23281;BME280;11809;56.390;-3.266;2023-02-11T00:35:47;102293.56;;;14.96;56.27
23281;BME280;11809;56.390;-3.266;2023-02-11T00:38:14;102301.53;;;14.96;55.98
23281;BME280;11809;56.390;-3.266;2023-02-11T00:40:42;102297.16;;;14.95;56.25
23281;BME280;11809;56.390;-3.266;2023-02-11T00:43:09;102288.47;;;14.90;55.96
23281;BME280;11809;56.390;-3.266;2023-02-11T00:45:36;102292.84;;;14.91;56.19
23281;BME280;11809;56.390;-3.266;2023-02-11T00:48:03;102289.34;;;14.91;56.29
23281;BME280;11809;56.390;-3.266;2023-02-11T00:50:30;102297.38;;;14.88;56.48
23281;BME280;11809;56.390;-3.266;2023-02-11T00:52:57;102297.44;;;14.86;56.47
23281;BME280;11809;56.390;-3.266;2023-02-11T00:55:23;102308.03;;;14.86;56.15
23281;BME280;11809;56.390;-3.266;2023-02-11T00:57:50;102306.28;;;14.85;56.52
23281;BME280;11809;56.390;-3.266;2023-02-11T01:00:18;102314.22;;;14.85;56.58
23281;BME280;11809;56.390;-3.266;2023-02-11T01:02:45;102318.72;;;14.83;56.54
23281;BME280;11809;56.390;-3.266;2023-02-11T01:05:11;102324.00;;;14.83;56.57
23281;BME280;11809;56.390;-3.266;2023-02-11T01:07:38;102326.66;;;14.83;56.43
23281;BME280;11809;56.390;-3.266;2023-02-11T01:10:06;102326.75;;;14.80;56.46
23281;BME280;11809;56.390;-3.266;2023-02-11T01:12:33;102318.78;;;14.80;56.65
23281;BME280;11809;56.390;-3.266;2023-02-11T01:15:02;102327.66;;;14.79;56.42
23281;BME280;11809;56.390;-3.266;2023-02-11T01:17:30;102325.88;;;14.80;56.66
23281;BME280;11809;56.390;-3.266;2023-02-11T01:19:56;102317.09;;;14.79;56.75
23281;BME280;11809;56.390;-3.266;2023-02-11T01:22:23;102314.47;;;14.78;56.73
23281;BME280;11809;56.390;-3.266;2023-02-11T01:24:50;102310.03;;;14.78;56.63
23281;BME280;11809;56.390;-3.266;2023-02-11T01:27:17;102312.75;;;14.77;56.75
23281;BME280;11809;56.390;-3.266;2023-02-11T01:29:44;102315.41;;;14.77;56.53
23281;BME280;11809;56.390;-3.266;2023-02-11T01:32:11;102310.13;;;14.75;56.93
23281;BME280;11809;56.390;-3.266;2023-02-11T01:34:38;102301.31;;;14.75;56.75
23281;BME280;11809;56.390;-3.266;2023-02-11T01:37:05;102298.75;;;14.73;56.89
23281;BME280;11809;56.390;-3.266;2023-02-11T01:39:33;102291.66;;;14.74;56.99
23281;BME280;11809;56.390;-3.266;2023-02-11T01:42:00;102289.94;;;14.73;56.79
23281;BME280;11809;56.390;-3.266;2023-02-11T01:44:31;102286.41;;;14.72;56.97
23281;BME280;11809;56.390;-3.266;2023-02-11T01:46:59;102292.53;;;14.74;57.02
23281;BME280;11809;56.390;-3.266;2023-02-11T01:49:29;102289.06;;;14.72;56.73
23281;BME280;11809;56.390;-3.266;2023-02-11T01:52:09;102290.88;;;14.70;56.94
23281;BME280;11809;56.390;-3.266;2023-02-11T01:54:45;102297.94;;;14.71;57.03
23281;BME280;11809;56.390;-3.266;2023-02-11T01:57:33;102286.47;;;14.71;57.05
23281;BME280;11809;56.390;-3.266;2023-02-11T02:05:44;102279.50;;;14.68;57.06
23281;BME280;11809;56.390;-3.266;2023-02-11T02:08:30;102283.00;;;14.69;57.14
23281;BME280;11809;56.390;-3.266;2023-02-11T02:11:01;102287.44;;;14.68;57.06
23281;BME280;11809;56.390;-3.266;2023-02-11T02:13:31;102290.97;;;14.67;57.24
23281;BME280;11809;56.390;-3.266;2023-02-11T02:16:12;102293.63;;;14.67;57.10
23281;BME280;11809;56.390;-3.266;2023-02-11T02:21:50;102291.84;;;14.68;57.23
23281;BME280;11809;56.390;-3.266;2023-02-11T02:24:48;102307.72;;;14.68;56.92
23281;BME280;11809;56.390;-3.266;2023-02-11T02:38:24;102324.56;;;14.65;57.35
23281;BME280;11809;56.390;-3.266;2023-02-11T02:40:58;102318.38;;;14.66;57.39
23281;BME280;11809;56.390;-3.266;2023-02-11T02:43:28;102340.44;;;14.65;57.26
23281;BME280;11809;56.390;-3.266;2023-02-11T02:46:12;102339.56;;;14.65;57.20
23281;BME280;11809;56.390;-3.266;2023-02-11T02:48:40;102338.69;;;14.64;57.42
23281;BME280;11809;56.390;-3.266;2023-02-11T03:10:08;102321.03;;;14.66;57.38
23281;BME280;11809;56.390;-3.266;2023-02-11T03:12:36;102327.22;;;14.65;57.37
23281;BME280;11809;56.390;-3.266;2023-02-11T03:15:05;102317.53;;;14.64;57.21
23281;BME280;11809;56.390;-3.266;2023-02-11T03:17:34;102329.84;;;14.65;57.55
23281;BME280;11809;56.390;-3.266;2023-02-11T03:20:03;102321.91;;;14.65;57.55
23281;BME280;11809;56.390;-3.266;2023-02-11T03:22:47;102322.81;;;14.64;57.63
23281;BME280;11809;56.390;-3.266;2023-02-11T03:25:16;102324.56;;;14.65;57.45
23281;BME280;11809;56.390;-3.266;2023-02-11T03:27:52;102334.34;;;14.63;57.59
23281;BME280;11809;56.390;-3.266;2023-02-11T03:30:33;102327.22;;;14.65;57.70
23281;BME280;11809;56.390;-3.266;2023-02-11T03:33:24;102345.75;;;14.65;57.38
23281;BME280;11809;56.390;-3.266;2023-02-11T03:35:57;102344.91;;;14.63;57.40
23281;BME280;11809;56.390;-3.266;2023-02-11T03:38:29;102347.50;;;14.65;57.50
23281;BME280;11809;56.390;-3.266;2023-02-11T03:40:58;102341.41;;;14.63;57.27
23281;BME280;11809;56.390;-3.266;2023-02-11T03:43:40;102348.38;;;14.65;57.58
23281;BME280;11809;56.390;-3.266;2023-02-11T03:46:08;102341.31;;;14.66;57.37
23281;BME280;11809;56.390;-3.266;2023-02-11T03:48:39;102352.84;;;14.63;57.75
23281;BME280;11809;56.390;-3.266;2023-02-11T03:51:10;102356.31;;;14.65;57.42
23281;BME280;11809;56.390;-3.266;2023-02-11T03:53:40;102356.31;;;14.65;57.59
23281;BME280;11809;56.390;-3.266;2023-02-11T03:56:14;102353.69;;;14.65;57.53
23281;BME280;11809;56.390;-3.266;2023-02-11T03:58:47;102354.63;;;14.63;57.65
23281;BME280;11809;56.390;-3.266;2023-02-11T04:01:14;102354.56;;;14.64;57.60
23281;BME280;11809;56.390;-3.266;2023-02-11T04:03:41;102340.50;;;14.64;57.56
23281;BME280;11809;56.390;-3.266;2023-02-11T04:06:08;102343.16;;;14.64;57.43
23281;BME280;11809;56.390;-3.266;2023-02-11T04:08:35;102344.91;;;14.63;57.77
23281;BME280;11809;56.390;-3.266;2023-02-11T04:11:02;102345.75;;;14.65;57.59
23281;BME280;11809;56.390;-3.266;2023-02-11T04:13:29;102351.03;;;14.65;57.56
23281;BME280;11809;56.390;-3.266;2023-02-11T04:15:56;102338.69;;;14.64;57.63
23281;BME280;11809;56.390;-3.266;2023-02-11T04:18:23;102344.00;;;14.64;57.63
23281;BME280;11809;56.390;-3.266;2023-02-11T04:20:50;102344.88;;;14.65;57.66
23281;BME280;11809;56.390;-3.266;2023-02-11T04:23:17;102351.91;;;14.66;57.48
23281;BME280;11809;56.390;-3.266;2023-02-11T04:25:44;102356.31;;;14.65;57.59
23281;BME280;11809;56.390;-3.266;2023-02-11T04:28:11;102352.78;;;14.66;57.75
23281;BME280;11809;56.390;-3.266;2023-02-11T04:30:38;102359.84;;;14.66;57.55
23281;BME280;11809;56.390;-3.266;2023-02-11T04:33:05;102359.88;;;14.64;57.43
23281;BME280;11809;56.390;-3.266;2023-02-11T04:35:32;102365.16;;;14.64;57.53
23281;BME280;11809;56.390;-3.266;2023-02-11T04:37:58;102374.78;;;14.67;57.71
23281;BME280;11809;56.390;-3.266;2023-02-11T04:40:25;102372.19;;;14.65;57.67
23281;BME280;11809;56.390;-3.266;2023-02-11T04:42:52;102381.03;;;14.64;57.63
23281;BME280;11809;56.390;-3.266;2023-02-11T04:45:19;102388.06;;;14.65;57.71
23281;BME280;11809;56.390;-3.266;2023-02-11T04:47:46;102393.44;;;14.64;57.43
23281;BME280;11809;56.390;-3.266;2023-02-11T04:50:13;102389.84;;;14.65;57.50
23281;BME280;11809;56.390;-3.266;2023-02-11T04:52:40;102388.97;;;14.64;57.59
23281;BME280;11809;56.390;-3.266;2023-02-11T04:55:07;102388.06;;;14.65;57.67
23281;BME280;11809;56.390;-3.266;2023-02-11T04:57:34;102396.91;;;14.64;57.76
23281;BME280;11809;56.390;-3.266;2023-02-11T05:00:01;102393.38;;;14.65;57.68
23281;BME280;11809;56.390;-3.266;2023-02-11T05:02:28;102400.50;;;14.63;57.86
23281;BME280;11809;56.390;-3.266;2023-02-11T05:04:55;102408.38;;;14.65;57.58
23281;BME280;11809;56.390;-3.266;2023-02-11T05:07:22;102398.72;;;14.64;57.77
23281;BME280;11809;56.390;-3.266;2023-02-11T05:09:49;102400.50;;;14.63;57.62
23281;BME280;11809;56.390;-3.266;2023-02-11T05:12:16;102401.38;;;14.64;57.63
23281;BME280;11809;56.390;-3.266;2023-02-11T05:14:43;102402.22;;;14.64;57.70
23281;BME280;11809;56.390;-3.266;2023-02-11T05:17:10;102408.34;;;14.66;57.72
23281;BME280;11809;56.390;-3.266;2023-02-11T05:19:37;102404.84;;;14.64;57.82
23281;BME280;11809;56.390;-3.266;2023-02-11T05:22:04;102411.94;;;14.64;57.83
23281;BME280;11809;56.390;-3.266;2023-02-11T05:24:31;102421.59;;;14.65;57.77
23281;BME280;11809;56.390;-3.266;2023-02-11T05:26:58;102424.25;;;14.65;57.70
23281;BME280;11809;56.390;-3.266;2023-02-11T05:29:25;102420.78;;;14.63;57.69
23281;BME280;11809;56.390;-3.266;2023-02-11T05:31:52;102431.41;;;14.61;57.83
23281;BME280;11809;56.390;-3.266;2023-02-11T05:34:19;102429.53;;;14.65;57.84
23281;BME280;11809;56.390;-3.266;2023-02-11T05:36:46;102428.66;;;14.64;57.74
23281;BME280;11809;56.390;-3.266;2023-02-11T05:39:13;102432.25;;;14.63;57.85
23281;BME280;11809;56.390;-3.266;2023-02-11T05:41:40;102434.84;;;14.65;57.63
23281;BME280;11809;56.390;-3.266;2023-02-11T05:44:07;102433.97;;;14.64;57.85
23281;BME280;11809;56.390;-3.266;2023-02-11T05:46:34;102436.56;;;14.66;57.72
23281;BME280;11809;56.390;-3.266;2023-02-11T05:49:01;102437.53;;;14.63;57.70
23281;BME280;11809;56.390;-3.266;2023-02-11T05:51:27;102433.06;;;14.65;57.88
23281;BME280;11809;56.390;-3.266;2023-02-11T05:53:54;102439.25;;;14.64;57.79
23281;BME280;11809;56.390;-3.266;2023-02-11T05:56:21;102439.25;;;14.64;57.65
23281;BME280;11809;56.390;-3.266;2023-02-11T05:58:48;102441.91;;;14.64;57.97
23281;BME280;11809;56.390;-3.266;2023-02-11T06:01:15;102445.47;;;14.63;57.84
23281;BME280;11809;56.390;-3.266;2023-02-11T06:03:42;102447.19;;;14.64;58.05
23281;BME280;11809;56.390;-3.266;2023-02-11T06:06:10;102451.59;;;14.65;57.70
23281;BME280;11809;56.390;-3.266;2023-02-11T06:08:37;102453.31;;;14.66;57.73
23281;BME280;11809;56.390;-3.266;2023-02-11T06:11:05;102454.31;;;14.62;57.87
23281;BME280;11809;56.390;-3.266;2023-02-11T06:13:32;102456.09;;;14.62;57.78
23281;BME280;11809;56.390;-3.266;2023-02-11T06:15:59;102452.56;;;14.61;57.94
23281;BME280;11809;56.390;-3.266;2023-02-11T06:18:28;102451.66;;;14.62;57.84
23281;BME280;11809;56.390;-3.266;2023-02-11T06:20:55;102446.38;;;14.62;57.60
23281;BME280;11809;56.390;-3.266;2023-02-11T06:23:22;102447.25;;;14.63;57.68
23281;BME280;11809;56.390;-3.266;2023-02-11T06:25:49;102446.28;;;14.65;57.97
23281;BME280;11809;56.390;-3.266;2023-02-11T06:28:17;102449.75;;;14.67;58.06
23281;BME280;11809;56.390;-3.266;2023-02-11T06:30:44;102453.22;;;14.69;58.07
23281;BME280;11809;56.390;-3.266;2023-02-11T06:33:11;102456.72;;;14.71;57.88
23281;BME280;11809;56.390;-3.266;2023-02-11T06:35:38;102453.22;;;14.69;58.47
23281;BME280;11809;56.390;-3.266;2023-02-11T06:38:05;102458.47;;;14.71;58.36
23281;BME280;11809;56.390;-3.266;2023-02-11T06:40:33;102472.59;;;14.71;58.64
23281;BME280;11809;56.390;-3.266;2023-02-11T06:43:00;102475.16;;;14.74;58.53
23281;BME280;11809;56.390;-3.266;2023-02-11T06:45:26;102481.34;;;14.73;58.59
23281;BME280;11809;56.390;-3.266;2023-02-11T06:47:53;102476.88;;;14.75;58.41
23281;BME280;11809;56.390;-3.266;2023-02-11T06:50:21;102483.09;;;14.74;59.10
23281;BME280;11809;56.390;-3.266;2023-02-11T06:52:47;102489.13;;;14.79;59.11
23281;BME280;11809;56.390;-3.266;2023-02-11T06:55:15;102486.50;;;14.78;58.61
23281;BME280;11809;56.390;-3.266;2023-02-11T06:57:42;102491.88;;;14.75;58.43
23281;BME280;11809;56.390;-3.266;2023-02-11T07:00:09;102495.41;;;14.75;58.23
23281;BME280;11809;56.390;-3.266;2023-02-11T07:02:37;102485.81;;;14.71;58.08
23281;BME280;11809;56.390;-3.266;2023-02-11T07:05:05;102482.25;;;14.72;58.36
23281;BME280;11809;56.390;-3.266;2023-02-11T07:07:32;102486.63;;;14.73;58.12
23281;BME280;11809;56.390;-3.266;2023-02-11T07:09:59;102490.19;;;14.72;58.21
23281;BME280;11809;56.390;-3.266;2023-02-11T07:12:29;102485.75;;;14.73;58.35
23281;BME280;11809;56.390;-3.266;2023-02-11T07:14:56;102485.75;;;14.73;58.20
23281;BME280;11809;56.390;-3.266;2023-02-11T07:17:23;102484.88;;;14.72;58.33
23281;BME280;11809;56.390;-3.266;2023-02-11T07:19:50;102493.75;;;14.71;58.32
23281;BME280;11809;56.390;-3.266;2023-02-11T07:22:17;102500.75;;;14.72;58.19
23281;BME280;11809;56.390;-3.266;2023-02-11T07:24:44;102505.19;;;14.72;58.25
23281;BME280;11809;56.390;-3.266;2023-02-11T07:27:11;102505.19;;;14.72;58.33
23281;BME280;11809;56.390;-3.266;2023-02-11T07:29:38;102501.63;;;14.73;58.01
23281;BME280;11809;56.390;-3.266;2023-02-11T07:32:05;102498.09;;;14.74;58.44
23281;BME280;11809;56.390;-3.266;2023-02-11T07:34:32;102506.94;;;14.73;58.30
23281;BME280;11809;56.390;-3.266;2023-02-11T07:36:59;102502.50;;;14.73;58.18
23281;BME280;11809;56.390;-3.266;2023-02-11T07:39:26;102507.81;;;14.73;58.25
23281;BME280;11809;56.390;-3.266;2023-02-11T07:41:53;102508.69;;;14.74;58.47
23281;BME280;11809;56.390;-3.266;2023-02-11T07:44:20;102507.81;;;14.73;58.45
23281;BME280;11809;56.390;-3.266;2023-02-11T07:46:47;102510.41;;;14.75;58.78
23281;BME280;11809;56.390;-3.266;2023-02-11T07:49:15;102507.75;;;14.75;58.20
23281;BME280;11809;56.390;-3.266;2023-02-11T07:51:42;102506.94;;;14.73;58.20
23281;BME280;11809;56.390;-3.266;2023-02-11T07:54:10;102514.84;;;14.74;58.15
23281;BME280;11809;56.390;-3.266;2023-02-11T07:56:37;102520.97;;;14.75;58.43
23281;BME280;11809;56.390;-3.266;2023-02-11T07:59:04;102519.19;;;14.77;58.65
23281;BME280;11809;56.390;-3.266;2023-02-11T08:01:31;102517.38;;;14.77;58.89
23281;BME280;11809;56.390;-3.266;2023-02-11T08:04:00;102532.28;;;14.81;58.72
23281;BME280;11809;56.390;-3.266;2023-02-11T08:06:29;102527.88;;;14.82;58.74
23281;BME280;11809;56.390;-3.266;2023-02-11T08:08:57;102527.88;;;14.82;59.05
23281;BME280;11809;56.390;-3.266;2023-02-11T08:11:26;102520.66;;;14.87;59.03
23281;BME280;11809;56.390;-3.266;2023-02-11T08:13:55;102518.84;;;14.89;59.35
23281;BME280;11809;56.390;-3.266;2023-02-11T08:16:26;102521.41;;;14.90;59.38
23281;BME280;11809;56.390;-3.266;2023-02-11T08:18:59;102523.97;;;14.95;59.15
23281;BME280;11809;56.390;-3.266;2023-02-11T08:21:28;102528.31;;;14.97;59.36
23281;BME280;11809;56.390;-3.266;2023-02-11T08:23:55;102525.66;;;14.97;59.20
23281;BME280;11809;56.390;-3.266;2023-02-11T08:26:27;102527.34;;;15.00;59.22
23281;BME280;11809;56.390;-3.266;2023-02-11T08:28:55;102529.84;;;15.04;59.36
23281;BME280;11809;56.390;-3.266;2023-02-11T08:31:28;102537.78;;;15.06;59.30
23281;BME280;11809;56.390;-3.266;2023-02-11T08:33:55;102530.72;;;15.05;59.41
23281;BME280;11809;56.390;-3.266;2023-02-11T08:36:26;102531.47;;;15.10;59.15
23281;BME280;11809;56.390;-3.266;2023-02-11T08:38:56;102542.88;;;15.12;59.21
23281;BME280;11809;56.390;-3.266;2023-02-11T08:41:45;102544.63;;;15.13;59.39
23281;BME280;11809;56.390;-3.266;2023-02-11T08:44:12;102538.41;;;15.14;59.37
23281;BME280;11809;56.390;-3.266;2023-02-11T08:46:39;102544.47;;;15.17;59.43
23281;BME280;11809;56.390;-3.266;2023-02-11T08:49:06;102551.53;;;15.18;59.35
23281;BME280;11809;56.390;-3.266;2023-02-11T08:51:33;102545.25;;;15.21;59.41
23281;BME280;11809;56.390;-3.266;2023-02-11T08:54:00;102557.53;;;15.24;59.49
23281;BME280;11809;56.390;-3.266;2023-02-11T08:56:28;102565.41;;;15.27;59.37
23281;BME280;11809;56.390;-3.266;2023-02-11T08:58:57;102576.81;;;15.29;59.52
23281;BME280;11809;56.390;-3.266;2023-02-11T09:01:26;102572.34;;;15.31;59.22
23281;BME280;11809;56.390;-3.266;2023-02-11T09:03:55;102576.72;;;15.32;59.22
23281;BME280;11809;56.390;-3.266;2023-02-11T09:06:23;102578.47;;;15.33;59.15
23281;BME280;11809;56.390;-3.266;2023-02-11T09:08:52;102583.66;;;15.36;59.27
23281;BME280;11809;56.390;-3.266;2023-02-11T09:11:25;102587.97;;;15.40;59.34
23281;BME280;11809;56.390;-3.266;2023-02-11T09:13:52;102585.31;;;15.40;59.03
23281;BME280;11809;56.390;-3.266;2023-02-11T09:16:25;102597.69;;;15.41;59.21
23281;BME280;11809;56.390;-3.266;2023-02-11T09:18:56;102591.44;;;15.42;59.26
23281;BME280;11809;56.390;-3.266;2023-02-11T09:21:23;102591.41;;;15.43;59.28
23281;BME280;11809;56.390;-3.266;2023-02-11T09:23:50;102597.75;;;15.38;58.31
23281;BME280;11809;56.390;-3.266;2023-02-11T09:26:20;102601.31;;;15.37;58.20
23281;BME280;11809;56.390;-3.266;2023-02-11T09:28:48;102603.06;;;15.38;58.55
23281;BME280;11809;56.390;-3.266;2023-02-11T09:31:18;102602.97;;;15.41;58.69
23281;BME280;11809;56.390;-3.266;2023-02-11T09:33:47;102610.91;;;15.41;58.59
23281;BME280;11809;56.390;-3.266;2023-02-11T09:36:22;102617.06;;;15.41;58.37
23281;BME280;11809;56.390;-3.266;2023-02-11T09:38:51;102609.97;;;15.43;58.52
23281;BME280;11809;56.390;-3.266;2023-02-11T09:44:02;102614.25;;;15.49;58.72
23281;BME280;11809;56.390;-3.266;2023-02-11T09:46:35;102622.16;;;15.50;58.92
23281;BME280;11809;56.390;-3.266;2023-02-11T09:49:03;102625.66;;;15.51;58.96
23281;BME280;11809;56.390;-3.266;2023-02-11T09:51:39;102629.13;;;15.53;58.78
23281;BME280;11809;56.390;-3.266;2023-02-11T09:54:19;102629.94;;;15.55;58.78
23281;BME280;11809;56.390;-3.266;2023-02-11T09:56:48;102633.47;;;15.55;58.69
23281;BME280;11809;56.390;-3.266;2023-02-11T09:59:15;102630.88;;;15.54;58.45
23281;BME280;11809;56.390;-3.266;2023-02-11T10:01:47;102633.53;;;15.54;58.15
23281;BME280;11809;56.390;-3.266;2023-02-11T10:21:12;102639.72;;;15.53;57.97
23281;BME280;11809;56.390;-3.266;2023-02-11T10:23:46;102644.06;;;15.55;58.29
23281;BME280;11809;56.390;-3.266;2023-02-11T10:26:16;102656.34;;;15.59;58.39
23281;BME280;11809;56.390;-3.266;2023-02-11T10:28:47;102656.34;;;15.59;57.89
23281;BME280;11809;56.390;-3.266;2023-02-11T10:34:10;102655.38;;;15.62;58.06
23281;BME280;11809;56.390;-3.266;2023-02-11T10:36:40;102661.66;;;15.59;57.91
23281;BME280;11809;56.390;-3.266;2023-02-11T10:39:22;102663.34;;;15.62;57.96
23281;BME280;11809;56.390;-3.266;2023-02-11T10:41:53;102665.03;;;15.64;57.92
23281;BME280;11809;56.390;-3.266;2023-02-11T10:46:48;102665.88;;;15.65;57.92
23281;BME280;11809;56.390;-3.266;2023-02-11T10:49:43;102672.84;;;15.69;58.51
23281;BME280;11809;56.390;-3.266;2023-02-11T10:57:30;102687.00;;;15.68;57.91
23281;BME280;11809;56.390;-3.266;2023-02-11T11:00:04;102688.81;;;15.66;57.80
23281;BME280;11809;56.390;-3.266;2023-02-11T11:02:35;102693.16;;;15.68;58.06
23281;BME280;11809;56.390;-3.266;2023-02-11T11:05:19;102701.94;;;15.70;58.14
23281;BME280;11809;56.390;-3.266;2023-02-11T11:07:58;102709.84;;;15.72;58.02
23281;BME280;11809;56.390;-3.266;2023-02-11T11:10:37;102688.56;;;15.75;58.33
23281;BME280;11809;56.390;-3.266;2023-02-11T11:13:28;102693.09;;;15.71;57.79
23281;BME280;11809;56.390;-3.266;2023-02-11T11:16:16;102686.13;;;15.67;58.05
23281;BME280;11809;56.390;-3.266;2023-02-11T11:18:48;102697.59;;;15.68;58.13
23281;BME280;11809;56.390;-3.266;2023-02-11T11:23:59;102699.50;;;15.63;58.21
23281;BME280;11809;56.390;-3.266;2023-02-11T11:26:38;102696.91;;;15.61;58.05
23281;BME280;11809;56.390;-3.266;2023-02-11T11:29:25;102690.78;;;15.59;58.52
23281;BME280;11809;56.390;-3.266;2023-02-11T11:31:56;102697.88;;;15.59;58.09
23281;BME280;11809;56.390;-3.266;2023-02-11T11:34:33;102690.88;;;15.56;57.97
23281;BME280;11809;56.390;-3.266;2023-02-11T11:37:36;102690.91;;;15.55;57.86
23281;BME280;11809;56.390;-3.266;2023-02-11T11:40:09;102692.72;;;15.53;58.04
23281;BME280;11809;56.390;-3.266;2023-02-11T11:42:38;102696.28;;;15.52;58.10
23281;BME280;11809;56.390;-3.266;2023-02-11T11:53:17;102683.19;;;15.47;58.27
23281;BME280;11809;56.390;-3.266;2023-02-11T11:55:56;102690.28;;;15.45;58.15
23281;BME280;11809;56.390;-3.266;2023-02-11T11:58:27;102681.44;;;15.45;58.10
23281;BME280;11809;56.390;-3.266;2023-02-11T12:17:40;102660.47;;;15.37;58.13
23281;BME280;11809;56.390;-3.266;2023-02-11T12:23:31;102663.16;;;15.36;58.31
23281;BME280;11809;56.390;-3.266;2023-02-11T12:34:25;102647.38;;;15.33;58.24
23281;BME280;11809;56.390;-3.266;2023-02-11T12:39:42;102638.31;;;15.40;58.24
23281;BME280;11809;56.390;-3.266;2023-02-11T12:42:36;102642.66;;;15.42;58.03
23281;BME280;11809;56.390;-3.266;2023-02-11T12:49:03;102640.88;;;15.43;56.92
23281;BME280;11809;56.390;-3.266;2023-02-11T12:54:20;102637.31;;;15.44;57.22
23281;BME280;11809;56.390;-3.266;2023-02-11T13:01:48;102640.16;;;15.38;56.77
23281;BME280;11809;56.390;-3.266;2023-02-11T13:06:49;102654.28;;;15.37;56.84
23281;BME280;11809;56.390;-3.266;2023-02-11T13:09:22;102649.97;;;15.34;56.90
23281;BME280;11809;56.390;-3.266;2023-02-11T13:11:54;102653.41;;;15.38;56.71
23281;BME280;11809;56.390;-3.266;2023-02-11T13:14:34;102654.25;;;15.38;56.63
23281;BME280;11809;56.390;-3.266;2023-02-11T13:17:12;102650.75;;;15.38;56.38
23281;BME280;11809;56.390;-3.266;2023-02-11T13:19:49;102647.16;;;15.39;56.88
23281;BME280;11809;56.390;-3.266;2023-02-11T13:22:33;102630.38;;;15.40;57.14
23281;BME280;11809;56.390;-3.266;2023-02-11T13:35:29;102654.28;;;15.37;55.90
23281;BME280;11809;56.390;-3.266;2023-02-11T13:38:05;102639.31;;;15.36;55.99
23281;BME280;11809;56.390;-3.266;2023-02-11T13:40:43;102638.47;;;15.34;56.57
23281;BME280;11809;56.390;-3.266;2023-02-11T13:43:22;102637.41;;;15.41;57.00
23281;BME280;11809;56.390;-3.266;2023-02-11T13:45:51;102637.28;;;15.45;57.27
23281;BME280;11809;56.390;-3.266;2023-02-11T13:49:14;102628.41;;;15.48;57.67
23281;BME280;11809;56.390;-3.266;2023-02-11T13:51:15;102637.16;;;15.50;57.62
23281;BME280;11809;56.390;-3.266;2023-02-11T13:53:51;102629.19;;;15.51;57.87
23281;BME280;11809;56.390;-3.266;2023-02-11T13:56:39;102639.72;;;15.53;57.98
23281;BME280;11809;56.390;-3.266;2023-02-11T14:13:32;102629.88;;;15.58;57.83
23281;BME280;11809;56.390;-3.266;2023-02-11T14:26:43;102633.97;;;15.68;57.31
23281;BME280;11809;56.390;-3.266;2023-02-11T14:29:20;102626.09;;;15.66;56.38
23281;BME280;11809;56.390;-3.266;2023-02-11T14:40:09;102642.25;;;15.57;55.79
23281;BME280;11809;56.390;-3.266;2023-02-11T14:42:41;102647.75;;;15.51;55.64
23281;BME280;11809;56.390;-3.266;2023-02-11T14:45:15;102649.63;;;15.46;55.51
23281;BME280;11809;56.390;-3.266;2023-02-11T14:47:52;102653.19;;;15.44;55.41
23281;BME280;11809;56.390;-3.266;2023-02-11T14:50:38;102657.69;;;15.42;55.41
23281;BME280;11809;56.390;-3.266;2023-02-11T14:53:06;102660.41;;;15.39;55.56
23281;BME280;11809;56.390;-3.266;2023-02-11T14:55:41;102651.66;;;15.37;55.62
23281;BME280;11809;56.390;-3.266;2023-02-11T14:58:13;102659.53;;;15.38;55.84
23281;BME280;11809;56.390;-3.266;2023-02-11T15:00:53;102659.47;;;15.41;56.16
23281;BME280;11809;56.390;-3.266;2023-02-11T15:03:40;102657.75;;;15.39;55.60
23281;BME280;11809;56.390;-3.266;2023-02-11T15:06:20;102656.03;;;15.38;55.70
23281;BME280;11809;56.390;-3.266;2023-02-11T15:08:52;102661.34;;;15.38;55.54
23281;BME280;11809;56.390;-3.266;2023-02-11T15:11:21;102653.41;;;15.38;55.49
23281;BME280;11809;56.390;-3.266;2023-02-11T15:13:50;102659.50;;;15.40;56.21
23281;BME280;11809;56.390;-3.266;2023-02-11T15:16:24;102659.53;;;15.38;56.61
23281;BME280;11809;56.390;-3.266;2023-02-11T15:18:54;102666.56;;;15.41;56.81
23281;BME280;11809;56.390;-3.266;2023-02-11T15:21:27;102665.69;;;15.40;56.81
23281;BME280;11809;56.390;-3.266;2023-02-11T15:24:02;102670.03;;;15.43;57.04
23281;BME280;11809;56.390;-3.266;2023-02-11T15:26:32;102669.97;;;15.44;57.02
23281;BME280;11809;56.390;-3.266;2023-02-11T15:28:59;102674.34;;;15.47;56.99
23281;BME280;11809;56.390;-3.266;2023-02-11T15:31:27;102674.38;;;15.45;57.45
23281;BME280;11809;56.390;-3.266;2023-02-11T15:34:06;102679.66;;;15.45;57.32
23281;BME280;11809;56.390;-3.266;2023-02-11T15:36:33;102681.41;;;15.48;57.42
23281;BME280;11809;56.390;-3.266;2023-02-11T15:39:28;102667.25;;;15.49;57.77
23281;BME280;11809;56.390;-3.266;2023-02-11T15:42:35;102676.91;;;15.50;57.74
23281;BME280;11809;56.390;-3.266;2023-02-11T15:45:24;102682.22;;;15.50;57.84
23281;BME280;11809;56.390;-3.266;2023-02-11T15:48:10;102686.63;;;15.49;57.99